Terminal Aerodrome Forecast
Issued by NWS

Current Version | Previous Version | Text Only | Print | Product List | Glossary On
Versions: 1 2 3 4 5 6 7 8 9 10 11 12 13 14 15 16 17 18 19 20
000
FTUS44 KTSA 240600 AAA
TAFFYV
TAF AMD
KFYV 240620Z 2406/2506 14015G24KT P6SM -RA SCT035 BKN050
      TEMPO 2406/2409 3SM -TSRA BKN025CB
     FM240900 17012KT 3SM -TSRA OVC012CB
      TEMPO 2412/2416 1SM TSRA BKN007CB
     FM241600 17013G20KT 3SM -TSRA OVC015CB
      TEMPO 2503/2506 6SM -RA BR BKN025=

USA.gov is the U.S. government's official web portal to all federal, state and local government web resources and services.